Time;durP1;ratioP1;P1;durP2;ratioP2;P2;SDS_P1;SDS_P2;PMS_P1;PMS_P2;Temp;Humidity;BMP_temperature;BMP_pressure;BME280_temperature;BME280_humidity;BME280_pressure;Samples;Min_cycle;Max_cycle;Signal;HPM_P1;HPM_P2
2022/01/03 00:00:19;;;;;;;9.70;2.00;;;9.00;99.90;;;;;;5035208;28;20514;-71
2022/01/03 00:02:45;;;;;;;8.40;1.90;;;9.00;99.90;;;;;;5035764;28;20037;-71
2022/01/03 00:05:11;;;;;;;11.88;2.17;;;9.00;99.90;;;;;;5036364;28;20052;-71
2022/01/03 00:07:40;;;;;;;12.48;2.35;;;9.10;99.90;;;;;;5019144;28;20048;-74
2022/01/03 00:10:08;;;;;;;11.88;2.05;;;9.10;99.90;;;;;;5015306;28;20045;-71
2022/01/03 00:12:34;;;;;;;17.42;2.65;;;9.10;99.90;;;;;;5016114;28;20086;-74
2022/01/03 00:15:00;;;;;;;15.07;2.15;;;9.10;99.90;;;;;;5016083;28;20132;-70
2022/01/03 00:17:25;;;;;;;17.77;3.83;;;9.20;99.90;;;;;;5016167;28;20049;-70
2022/01/03 00:19:51;;;;;;;16.13;2.50;;;9.20;99.90;;;;;;5015791;28;20045;-72
2022/01/03 00:22:22;;;;;;;21.83;3.15;;;9.30;99.90;;;;;;5019015;28;20120;-72
2022/01/03 00:25:00;;;;;;;21.80;3.38;;;9.30;99.90;;;;;;5035652;28;20037;-71
2022/01/03 00:27:33;;;;;;;30.85;3.33;;;9.40;99.90;;;;;;5035120;28;20040;-71
2022/01/03 00:30:00;;;;;;;15.88;3.22;;;9.40;99.90;;;;;;5035895;28;20049;-71
2022/01/03 00:32:27;;;;;;;18.58;2.78;;;9.40;99.90;;;;;;5035504;28;20396;-71
2022/01/03 00:34:55;;;;;;;17.10;3.22;;;9.50;99.90;;;;;;5035958;28;20048;-71
2022/01/03 00:37:23;;;;;;;21.50;2.75;;;9.50;99.90;;;;;;5035333;28;20049;-72
2022/01/03 00:39:50;;;;;;;20.80;3.22;;;9.50;99.90;;;;;;5018824;28;20045;-71
2022/01/03 00:42:16;;;;;;;19.88;3.72;;;9.60;99.90;;;;;;5035810;28;20083;-72
2022/01/03 00:44:43;;;;;;;18.90;3.15;;;9.60;99.90;;;;;;5035765;28;20037;-71
2022/01/03 00:47:10;;;;;;;23.42;2.78;;;9.60;99.90;;;;;;5035631;28;20041;-72
2022/01/03 00:49:39;;;;;;;18.33;2.90;;;9.60;99.90;;;;;;5018770;28;20391;-71
2022/01/03 00:52:05;;;;;;;16.27;2.93;;;9.70;99.90;;;;;;5035061;28;20063;-74
2022/01/03 00:54:31;;;;;;;17.95;2.72;;;9.70;99.90;;;;;;5019377;28;20276;-72
2022/01/03 00:57:04;;;;;;;19.08;2.97;;;9.60;99.90;;;;;;5035442;28;20040;-74
2022/01/03 00:59:42;;;;;;;21.13;2.58;;;9.70;99.90;;;;;;5046608;28;20067;-72
2022/01/03 01:02:10;;;;;;;25.55;3.35;;;9.70;99.90;;;;;;5055480;28;20131;-72
2022/01/03 01:04:37;;;;;;;19.05;2.88;;;9.70;99.90;;;;;;5055411;28;20052;-71
2022/01/03 01:07:06;;;;;;;19.52;2.90;;;9.70;99.90;;;;;;5054616;28;20524;-72
2022/01/03 01:09:34;;;;;;;16.23;2.72;;;9.70;99.90;;;;;;5056006;28;20083;-72
2022/01/03 01:12:00;;;;;;;20.55;2.85;;;9.70;99.90;;;;;;5055204;28;20078;-71
2022/01/03 01:14:27;;;;;;;15.27;3.22;;;9.80;99.90;;;;;;5055186;28;20036;-71
2022/01/03 01:16:56;;;;;;;21.30;2.97;;;9.80;99.90;;;;;;5055002;28;20041;-72
2022/01/03 01:19:26;;;;;;;16.50;2.90;;;9.80;99.90;;;;;;5054786;28;20483;-71
2022/01/03 01:21:52;;;;;;;23.65;3.03;;;9.80;99.90;;;;;;5055651;28;20421;-72
2022/01/03 01:24:20;;;;;;;19.63;3.50;;;9.80;99.90;;;;;;5055228;28;20124;-72
2022/01/03 01:29:31;;;;;;;25.63;3.10;;;9.80;99.90;;;;;;5058558;28;20044;-71
2022/01/03 01:32:01;;;;;;;20.48;2.45;;;9.80;99.90;;;;;;5058145;28;20052;-71
2022/01/03 01:34:28;;;;;;;15.68;3.15;;;9.90;99.90;;;;;;5058458;28;20044;-74
2022/01/03 01:36:57;;;;;;;16.88;2.72;;;9.90;99.90;;;;;;5059026;28;20049;-72
2022/01/03 01:39:26;;;;;;;14.98;2.65;;;9.90;99.90;;;;;;5041914;28;20040;-71
2022/01/03 01:41:59;;;;;;;20.40;2.75;;;9.90;99.90;;;;;;5058545;28;20089;-70
2022/01/03 01:44:25;;;;;;;23.00;3.58;;;9.90;99.90;;;;;;5057588;28;20372;-72
2022/01/03 01:46:55;;;;;;;24.52;3.63;;;10.00;99.90;;;;;;5057537;28;20795;-71
2022/01/03 01:49:23;;;;;;;20.33;3.50;;;9.90;99.90;;;;;;5058069;28;20042;-71
2022/01/03 01:52:02;;;;;;;23.35;3.35;;;9.80;99.90;;;;;;5058306;28;20080;-71
2022/01/03 01:54:34;;;;;;;21.70;3.53;;;9.90;99.90;;;;;;5041585;28;20098;-72
2022/01/03 01:57:18;;;;;;;17.77;2.85;;;9.90;99.90;;;;;;5057947;28;20044;-72
2022/01/03 02:00:02;;;;;;;20.50;3.28;;;9.90;99.90;;;;;;5044970;28;20045;-71
2022/01/03 02:02:37;;;;;;;14.35;2.65;;;9.90;99.90;;;;;;5038191;28;20045;-71
2022/01/03 02:05:29;;;;;;;17.30;3.00;;;9.90;99.90;;;;;;5038131;28;20111;-71
2022/01/03 02:08:01;;;;;;;17.50;2.50;;;9.90;99.90;;;;;;5038394;28;20124;-73
2022/01/03 02:10:42;;;;;;;17.05;2.55;;;9.90;99.90;;;;;;5038552;28;20049;-72
2022/01/03 02:13:09;;;;;;;20.02;2.97;;;10.00;99.90;;;;;;5037944;28;20471;-72
2022/01/03 02:15:36;;;;;;;16.33;2.53;;;9.90;99.90;;;;;;5034083;28;20045;-72
2022/01/03 02:18:03;;;;;;;19.60;3.40;;;9.90;99.90;;;;;;5017681;28;20569;-71
2022/01/03 02:20:32;;;;;;;16.90;2.92;;;9.90;99.90;;;;;;5029002;28;20064;-75
2022/01/03 02:22:58;;;;;;;17.80;2.78;;;9.90;99.90;;;;;;5021488;28;20041;-73
2022/01/03 02:25:25;;;;;;;20.27;3.38;;;9.90;99.90;;;;;;5037254;28;20041;-73
2022/01/03 02:27:53;;;;;;;15.52;2.70;;;9.80;99.90;;;;;;5037569;28;20494;-71
2022/01/03 02:30:22;;;;;;;15.25;2.50;;;9.80;99.90;;;;;;5037566;28;20056;-71
2022/01/03 02:32:48;;;;;;;23.38;2.70;;;9.80;99.90;;;;;;5037011;28;20052;-71
2022/01/03 02:35:14;;;;;;;18.95;3.20;;;9.80;99.90;;;;;;5038115;28;20123;-72
2022/01/03 02:37:42;;;;;;;17.77;2.67;;;9.70;99.90;;;;;;5037311;28;20063;-74
2022/01/03 02:40:10;;;;;;;20.17;3.08;;;9.70;99.90;;;;;;5037689;28;20033;-71
2022/01/03 02:42:37;;;;;;;20.48;3.58;;;9.70;99.90;;;;;;5037351;28;20541;-71
2022/01/03 02:45:05;;;;;;;20.90;2.95;;;9.70;99.90;;;;;;5036432;28;20430;-72
2022/01/03 02:47:30;;;;;;;18.02;3.42;;;9.70;99.90;;;;;;5037779;28;20072;-71
2022/01/03 02:49:56;;;;;;;18.70;3.55;;;9.70;99.90;;;;;;5020836;28;20088;-72
2022/01/03 02:52:22;;;;;;;21.30;2.65;;;9.70;99.90;;;;;;5020817;28;20103;-72
2022/01/03 02:54:51;;;;;;;18.23;2.92;;;9.70;99.90;;;;;;5036628;28;20037;-72
2022/01/03 02:57:23;;;;;;;22.50;3.17;;;9.70;99.90;;;;;;5037107;28;20103;-72
2022/01/03 02:59:59;;;;;;;20.35;2.67;;;9.60;99.90;;;;;;5050031;28;20360;-71
2022/01/03 03:02:26;;;;;;;22.35;3.28;;;9.60;99.90;;;;;;5056807;28;20101;-72
2022/01/03 03:05:00;;;;;;;19.02;2.95;;;9.50;99.90;;;;;;5056700;28;20044;-72
2022/01/03 03:07:29;;;;;;;18.88;2.75;;;9.50;99.90;;;;;;5056731;28;20036;-71
2022/01/03 03:09:57;;;;;;;22.10;3.25;;;9.50;99.90;;;;;;5056754;28;20071;-72
2022/01/03 03:12:23;;;;;;;22.23;3.17;;;9.50;99.90;;;;;;5056475;28;20083;-73
2022/01/03 03:14:49;;;;;;;20.35;3.20;;;9.50;99.90;;;;;;5053276;28;20068;-71
2022/01/03 03:17:18;;;;;;;22.42;3.10;;;9.50;99.90;;;;;;5053436;28;20126;-71
2022/01/03 03:19:59;;;;;;;22.95;3.47;;;9.50;99.90;;;;;;5056566;28;20040;-71
2022/01/03 03:22:28;;;;;;;21.95;3.15;;;9.50;99.90;;;;;;5057168;28;20035;-74
2022/01/03 03:25:10;;;;;;;19.00;3.35;;;9.50;99.90;;;;;;5056692;28;20055;-72
2022/01/03 03:27:43;;;;;;;22.33;3.25;;;9.50;99.90;;;;;;5056384;28;20044;-74
2022/01/03 03:30:26;;;;;;;25.80;3.38;;;9.40;99.90;;;;;;5056209;28;20391;-70
2022/01/03 03:33:01;;;;;;;19.00;3.03;;;9.40;99.90;;;;;;5056142;28;20466;-74
2022/01/03 03:35:27;;;;;;;19.13;2.88;;;9.40;99.90;;;;;;5057063;28;20028;-71
2022/01/03 03:37:53;;;;;;;23.42;3.10;;;9.40;99.90;;;;;;5056877;28;20040;-72
2022/01/03 03:40:18;;;;;;;17.75;3.45;;;9.40;99.90;;;;;;5056210;28;20036;-71
2022/01/03 03:42:44;;;;;;;21.20;3.42;;;9.40;99.90;;;;;;5038594;28;20046;-72
2022/01/03 03:45:11;;;;;;;22.98;3.78;;;9.40;99.90;;;;;;5052560;28;20067;-75
2022/01/03 03:47:37;;;;;;;19.77;3.30;;;9.40;99.90;;;;;;5035557;28;20546;-74
2022/01/03 03:50:04;;;;;;;20.27;3.05;;;9.30;99.90;;;;;;5036159;28;20136;-71
2022/01/03 03:52:30;;;;;;;31.08;3.78;;;9.30;99.90;;;;;;5036192;28;20037;-73
2022/01/03 03:54:55;;;;;;;22.08;3.78;;;9.30;99.90;;;;;;5036215;28;20379;-72
2022/01/03 03:57:21;;;;;;;28.73;3.63;;;9.40;99.90;;;;;;5036302;28;20087;-72
2022/01/03 03:59:47;;;;;;;25.40;3.42;;;9.40;99.90;;;;;;5022958;28;20058;-71
2022/01/03 04:02:12;;;;;;;20.63;3.58;;;9.40;99.90;;;;;;4999654;28;20041;-71
2022/01/03 04:04:38;;;;;;;26.58;3.67;;;9.40;99.90;;;;;;5016348;28;20379;-71
2022/01/03 04:07:04;;;;;;;20.98;3.30;;;9.40;99.90;;;;;;5015777;28;20029;-72
2022/01/03 04:09:30;;;;;;;27.75;3.45;;;9.40;99.90;;;;;;5016410;28;20060;-71
2022/01/03 04:11:56;;;;;;;26.48;3.83;;;9.40;99.90;;;;;;5016267;28;20033;-72
2022/01/03 04:14:21;;;;;;;24.10;3.13;;;9.40;99.90;;;;;;5032331;28;20049;-74
2022/01/03 04:16:47;;;;;;;22.23;3.50;;;9.40;99.90;;;;;;4999210;28;20037;-72
2022/01/03 04:19:13;;;;;;;21.48;3.13;;;9.40;99.90;;;;;;5026941;28;20059;-73
2022/01/03 04:21:39;;;;;;;23.27;3.13;;;9.40;99.90;;;;;;5036228;28;20048;-71
2022/01/03 04:24:10;;;;;;;22.38;4.38;;;9.40;99.90;;;;;;5035711;28;20098;-71
2022/01/03 04:26:37;;;;;;;21.45;3.17;;;9.50;99.90;;;;;;5034779;28;20166;-71
2022/01/03 04:29:03;;;;;;;27.80;3.35;;;9.40;99.90;;;;;;5035523;28;20048;-71
2022/01/03 04:31:29;;;;;;;26.25;3.78;;;9.50;99.90;;;;;;5018757;28;20048;-75
2022/01/03 04:33:56;;;;;;;26.50;3.58;;;9.50;99.90;;;;;;5019746;28;20032;-72
2022/01/03 04:36:22;;;;;;;23.88;3.17;;;9.50;99.90;;;;;;5035408;28;20128;-71
2022/01/03 04:38:48;;;;;;;21.15;3.38;;;9.50;99.90;;;;;;5018988;28;20132;-71
2022/01/03 04:41:14;;;;;;;23.38;3.80;;;9.50;99.90;;;;;;5018714;28;20131;-72
2022/01/03 04:43:41;;;;;;;26.25;3.90;;;9.50;99.90;;;;;;5031836;28;20041;-72
2022/01/03 04:46:08;;;;;;;17.27;2.67;;;9.60;99.90;;;;;;5015286;28;20045;-72
2022/01/03 04:48:36;;;;;;;23.23;3.88;;;9.50;99.90;;;;;;5015898;28;20479;-71
2022/01/03 04:51:01;;;;;;;27.58;3.47;;;9.50;99.90;;;;;;5015925;28;20033;-71
2022/01/03 04:53:27;;;;;;;23.65;3.70;;;9.60;99.90;;;;;;5015950;28;20049;-72
2022/01/03 04:55:53;;;;;;;25.00;3.88;;;9.60;99.90;;;;;;5032276;28;20396;-71
2022/01/03 04:58:19;;;;;;;29.10;3.65;;;9.60;99.90;;;;;;5020604;28;20048;-73
2022/01/03 05:00:47;;;;;;;21.20;3.05;;;9.60;99.90;;;;;;5039086;28;20049;-72
2022/01/03 05:03:13;;;;;;;25.13;3.75;;;9.60;99.90;;;;;;5053037;28;20032;-72
2022/01/03 05:05:39;;;;;;;32.00;4.00;;;9.60;99.90;;;;;;5057730;28;20043;-73
2022/01/03 05:08:04;;;;;;;19.80;3.25;;;9.60;99.90;;;;;;5059238;28;20090;-72
2022/01/03 05:10:30;;;;;;;23.80;3.60;;;9.60;99.90;;;;;;5058942;28;20040;-72
2022/01/03 05:13:00;;;;;;;28.38;3.88;;;9.60;99.90;;;;;;5058654;28;20482;-72
2022/01/03 05:15:25;;;;;;;23.90;3.80;;;9.60;99.90;;;;;;5058598;28;20037;-72
2022/01/03 05:17:51;;;;;;;24.40;5.15;;;9.50;99.90;;;;;;5058584;28;20094;-71
2022/01/03 05:20:17;;;;;;;21.23;3.72;;;9.60;99.90;;;;;;5058969;28;20052;-71
2022/01/03 05:22:44;;;;;;;25.55;4.22;;;9.60;99.90;;;;;;5042567;28;20048;-72
2022/01/03 05:25:10;;;;;;;29.67;3.63;;;9.60;99.90;;;;;;5058945;28;20048;-72
2022/01/03 05:27:37;;;;;;;29.38;4.00;;;9.50;99.90;;;;;;5058399;28;20059;-71
2022/01/03 05:30:04;;;;;;;26.45;4.25;;;9.60;99.90;;;;;;5058254;28;20044;-71
2022/01/03 05:32:30;;;;;;;29.20;4.47;;;9.60;99.90;;;;;;5054895;28;20047;-72
2022/01/03 05:34:55;;;;;;;24.95;3.35;;;9.60;99.90;;;;;;5057590;28;20044;-74
2022/01/03 05:37:21;;;;;;;30.13;4.43;;;9.60;99.90;;;;;;5041844;28;20047;-72
2022/01/03 05:39:47;;;;;;;32.03;3.92;;;9.60;99.90;;;;;;5041711;28;20051;-72
2022/01/03 05:42:13;;;;;;;27.55;3.63;;;9.50;99.90;;;;;;5041561;28;20040;-71
2022/01/03 05:44:38;;;;;;;29.83;3.58;;;9.50;99.90;;;;;;5058185;28;20084;-72
2022/01/03 05:47:04;;;;;;;29.67;3.75;;;9.50;99.90;;;;;;5058901;28;20028;-71
2022/01/03 05:49:30;;;;;;;34.42;4.20;;;9.50;99.90;;;;;;5041892;28;20037;-72
2022/01/03 05:51:55;;;;;;;33.75;3.75;;;9.50;99.90;;;;;;5058418;28;20448;-73
2022/01/03 05:54:21;;;;;;;25.85;4.57;;;9.40;99.90;;;;;;5058376;28;20382;-74
2022/01/03 05:56:47;;;;;;;33.30;4.50;;;9.40;99.90;;;;;;5058192;28;20109;-72
2022/01/03 05:59:12;;;;;;;29.17;4.18;;;9.40;99.90;;;;;;5057439;28;20132;-72
2022/01/03 06:01:39;;;;;;;24.73;4.10;;;9.40;99.90;;;;;;5058229;28;20036;-72
2022/01/03 06:04:34;;;;;;;24.42;4.30;;;9.40;99.90;;;;;;5041436;28;20115;-72
2022/01/03 06:07:05;;;;;;;30.75;3.95;;;9.40;99.90;;;;;;5057777;28;20080;-71
2022/01/03 06:09:31;;;;;;;28.23;4.00;;;9.30;99.90;;;;;;5056653;28;20040;-71
2022/01/03 06:11:58;;;;;;;32.20;4.35;;;9.30;99.90;;;;;;5057965;28;20458;-72
2022/01/03 06:14:24;;;;;;;28.75;4.15;;;9.30;99.90;;;;;;5058487;28;20135;-73
2022/01/03 06:16:50;;;;;;;34.33;5.05;;;9.20;99.90;;;;;;5057638;28;20044;-72
2022/01/03 06:19:17;;;;;;;26.48;4.00;;;9.20;99.90;;;;;;5057593;28;20539;-72
2022/01/03 06:21:44;;;;;;;32.97;4.85;;;9.30;99.90;;;;;;5041113;28;20072;-72
2022/01/03 06:24:15;;;;;;;30.35;4.35;;;9.20;99.90;;;;;;5054514;28;20131;-72
2022/01/03 06:26:42;;;;;;;27.00;5.47;;;9.20;99.90;;;;;;5057661;28;20425;-72
2022/01/03 06:29:09;;;;;;;34.03;5.13;;;9.20;99.90;;;;;;5040578;28;20084;-74
2022/01/03 06:31:35;;;;;;;35.05;5.28;;;9.20;99.90;;;;;;5057576;28;20038;-74
2022/01/03 06:34:01;;;;;;;34.70;4.95;;;9.20;99.90;;;;;;5057538;28;20040;-72
2022/01/03 06:36:27;;;;;;;37.17;5.50;;;9.30;99.90;;;;;;5057284;28;20055;-72
2022/01/03 06:38:54;;;;;;;26.83;4.57;;;9.30;99.90;;;;;;5057546;28;20044;-72
2022/01/03 06:41:20;;;;;;;26.90;4.57;;;9.20;99.90;;;;;;5058005;28;20045;-72
2022/01/03 06:43:45;;;;;;;31.33;5.55;;;9.20;99.90;;;;;;5057494;28;20093;-72
2022/01/03 06:46:11;;;;;;;34.42;5.20;;;9.20;99.90;;;;;;5040049;28;20498;-74
2022/01/03 06:48:37;;;;;;;29.13;5.15;;;9.20;99.90;;;;;;5057170;28;20478;-73
2022/01/03 06:51:03;;;;;;;34.50;5.30;;;9.20;99.90;;;;;;5056677;28;20036;-73
2022/01/03 06:53:29;;;;;;;33.10;5.03;;;9.20;99.90;;;;;;5056087;28;20136;-72
2022/01/03 06:55:55;;;;;;;38.47;4.47;;;9.20;99.90;;;;;;5057259;28;20044;-72
2022/01/03 06:58:20;;;;;;;32.38;4.93;;;9.20;99.90;;;;;;5057105;28;20040;-73
2022/01/03 07:00:46;;;;;;;31.23;5.30;;;9.30;99.90;;;;;;5040701;28;20044;-75
2022/01/03 07:03:12;;;;;;;39.35;5.05;;;9.20;99.90;;;;;;5057032;28;20051;-73
2022/01/03 07:05:38;;;;;;;38.83;5.75;;;9.20;99.90;;;;;;5056918;28;20186;-75
2022/01/03 07:08:04;;;;;;;33.78;4.72;;;9.20;99.90;;;;;;5056562;28;20071;-72
2022/01/03 07:10:30;;;;;;;39.00;5.05;;;9.20;99.90;;;;;;5056953;28;20059;-72
2022/01/03 07:12:56;;;;;;;32.47;4.30;;;9.30;99.90;;;;;;5039983;28;20387;-72
2022/01/03 07:20:52;;;;;;;34.20;5.15;;;9.30;99.90;;;;;;5056285;28;20372;-72
2022/01/03 07:23:18;;;;;;;37.10;5.07;;;9.30;99.90;;;;;;5040196;28;20047;-73
2022/01/03 07:25:45;;;;;;;35.33;6.03;;;9.30;99.90;;;;;;5056831;28;20036;-72
2022/01/03 07:28:13;;;;;;;35.47;5.32;;;9.30;99.90;;;;;;5056378;28;20133;-74
2022/01/03 07:30:38;;;;;;;31.00;4.97;;;9.40;99.90;;;;;;5056434;28;20055;-72
2022/01/03 07:33:04;;;;;;;35.97;5.03;;;9.40;99.90;;;;;;5056138;28;20040;-72
2022/01/03 07:35:29;;;;;;;43.88;5.22;;;9.40;99.90;;;;;;5040174;28;20094;-72
2022/01/03 07:37:55;;;;;;;39.47;5.10;;;9.50;99.90;;;;;;5056565;28;20082;-73
2022/01/03 07:40:21;;;;;;;32.33;5.25;;;9.50;99.90;;;;;;5056333;28;20040;-73
2022/01/03 07:42:47;;;;;;;38.17;5.30;;;9.60;99.90;;;;;;5056392;28;20079;-73
2022/01/03 07:45:13;;;;;;;41.83;4.85;;;9.60;99.90;;;;;;5052553;28;20041;-74
2022/01/03 07:47:39;;;;;;;37.67;5.05;;;9.60;99.90;;;;;;5038287;28;20048;-76
2022/01/03 07:50:07;;;;;;;38.88;6.18;;;9.60;99.90;;;;;;5056148;28;20437;-72
2022/01/03 07:52:33;;;;;;;36.70;5.53;;;9.60;99.90;;;;;;5056301;28;20036;-72
2022/01/03 07:54:59;;;;;;;34.65;4.70;;;9.70;99.90;;;;;;5055755;28;20032;-72
2022/01/03 07:57:25;;;;;;;36.45;4.82;;;9.70;99.90;;;;;;5056047;28;20131;-72
2022/01/03 07:59:51;;;;;;;28.48;4.20;;;9.80;99.90;;;;;;5055683;28;20043;-75
2022/01/03 08:02:18;;;;;;;26.85;4.63;;;9.80;99.90;;;;;;5055590;28;20429;-75
2022/01/03 08:04:44;;;;;;;29.75;4.68;;;9.80;99.90;;;;;;5039582;28;20037;-72
2022/01/03 08:07:10;;;;;;;35.30;5.32;;;9.80;99.90;;;;;;5055765;28;20039;-74
2022/01/03 08:09:36;;;;;;;37.50;5.45;;;9.80;99.90;;;;;;5039166;28;20127;-72
2022/01/03 08:12:02;;;;;;;33.70;5.97;;;9.80;99.90;;;;;;5055807;28;20036;-72
2022/01/03 08:14:27;;;;;;;28.67;5.00;;;9.90;99.90;;;;;;5054267;28;20048;-72
2022/01/03 08:16:53;;;;;;;30.00;4.47;;;9.90;99.90;;;;;;5052283;28;20056;-72
2022/01/03 08:19:19;;;;;;;29.05;4.32;;;9.90;99.90;;;;;;5019240;28;20051;-72
2022/01/03 08:21:44;;;;;;;28.58;4.50;;;9.90;99.90;;;;;;5035604;28;20159;-72
2022/01/03 08:24:10;;;;;;;33.00;4.53;;;9.90;99.90;;;;;;5035994;28;20040;-72
2022/01/03 08:26:38;;;;;;;32.50;4.53;;;10.00;99.90;;;;;;5035615;28;20505;-72
2022/01/03 08:29:04;;;;;;;31.60;5.47;;;10.00;99.90;;;;;;5035738;28;20049;-73
2022/01/03 08:31:30;;;;;;;30.25;4.50;;;10.00;99.90;;;;;;5034589;28;20041;-75
2022/01/03 08:33:56;;;;;;;26.77;4.65;;;10.00;99.90;;;;;;5035481;28;20037;-72
2022/01/03 08:36:22;;;;;;;30.63;4.30;;;10.00;99.90;;;;;;5036535;28;20170;-72
2022/01/03 08:38:47;;;;;;;30.70;4.50;;;10.00;99.90;;;;;;5045178;28;20068;-75
2022/01/03 08:41:13;;;;;;;34.70;5.13;;;10.00;99.90;;;;;;5050334;28;20111;-72
2022/01/03 08:43:39;;;;;;;33.53;5.25;;;10.10;99.90;;;;;;5038348;28;20036;-72
2022/01/03 08:46:04;;;;;;;32.00;5.03;;;10.10;99.90;;;;;;5055031;28;20028;-72
2022/01/03 08:48:31;;;;;;;34.90;4.38;;;10.10;99.90;;;;;;5039445;28;20044;-74
2022/01/03 08:50:57;;;;;;;30.52;4.32;;;10.10;99.90;;;;;;5038541;28;20513;-73
2022/01/03 08:53:26;;;;;;;31.35;4.32;;;10.00;99.90;;;;;;5055335;28;20519;-71
2022/01/03 08:55:56;;;;;;;29.25;4.50;;;10.10;99.90;;;;;;5055347;28;20044;-72
2022/01/03 08:58:23;;;;;;;27.20;3.78;;;10.10;99.90;;;;;;5055026;28;20040;-75
2022/01/03 09:00:48;;;;;;;29.67;4.97;;;10.10;99.90;;;;;;5054186;28;20526;-72
2022/01/03 09:03:16;;;;;;;27.77;5.03;;;10.10;99.90;;;;;;5055059;28;20040;-72
2022/01/03 09:05:42;;;;;;;27.10;4.07;;;10.10;99.90;;;;;;5038190;28;20036;-73
2022/01/03 09:08:09;;;;;;;27.85;4.25;;;10.10;99.90;;;;;;5054816;28;20113;-72
2022/01/03 09:10:35;;;;;;;25.25;4.25;;;10.10;99.90;;;;;;5054725;28;20044;-75
2022/01/03 09:13:00;;;;;;;24.23;4.03;;;10.10;99.90;;;;;;5055035;28;20036;-71
2022/01/03 09:15:26;;;;;;;30.85;4.32;;;10.20;99.90;;;;;;5055203;28;20090;-74
2022/01/03 09:17:52;;;;;;;23.88;3.55;;;10.20;99.90;;;;;;5055633;28;20044;-73
2022/01/03 09:20:18;;;;;;;27.33;4.63;;;10.20;99.90;;;;;;5055293;28;20044;-71
2022/01/03 09:22:47;;;;;;;27.67;3.95;;;10.20;99.90;;;;;;5055231;28;20059;-73
2022/01/03 09:30:42;;;;;;;24.80;3.72;;;10.30;99.90;;;;;;5054735;28;20044;-74
2022/01/03 09:33:09;;;;;;;26.52;4.13;;;10.20;99.90;;;;;;5055351;28;20090;-73
2022/01/03 09:35:35;;;;;;;29.52;4.30;;;10.30;99.90;;;;;;5038642;28;20041;-73
2022/01/03 09:38:00;;;;;;;32.28;4.22;;;10.30;99.90;;;;;;5054357;28;20112;-73
2022/01/03 09:40:26;;;;;;;34.13;4.68;;;10.30;99.90;;;;;;5038650;28;20064;-72
2022/01/03 09:42:58;;;;;;;34.15;3.85;;;10.30;99.90;;;;;;5056379;28;20513;-72
2022/01/03 09:45:32;;;;;;;29.58;4.80;;;10.30;99.90;;;;;;5058532;28;20036;-73
2022/01/03 09:48:00;;;;;;;26.50;4.97;;;10.30;99.90;;;;;;5057626;28;20478;-75
2022/01/03 09:50:26;;;;;;;28.27;4.20;;;10.30;99.90;;;;;;5054585;28;20116;-74
2022/01/03 09:52:52;;;;;;;34.78;4.43;;;10.30;99.90;;;;;;5054955;28;20045;-72
2022/01/03 09:55:21;;;;;;;28.73;4.55;;;10.30;99.90;;;;;;5021645;28;20071;-72
2022/01/03 09:57:48;;;;;;;26.35;4.50;;;10.30;99.90;;;;;;5054764;28;20091;-73
2022/01/03 10:00:22;;;;;;;19.65;3.53;;;10.30;99.90;;;;;;5037770;28;20052;-75
2022/01/03 10:02:51;;;;;;;23.38;4.15;;;10.30;99.90;;;;;;5059264;28;20029;-74
2022/01/03 10:05:19;;;;;;;24.27;4.68;;;10.30;99.90;;;;;;5041267;28;20044;-72
2022/01/03 10:07:45;;;;;;;29.17;4.43;;;10.30;99.90;;;;;;5041556;28;20072;-71
2022/01/03 10:10:12;;;;;;;28.60;4.78;;;10.30;99.90;;;;;;5058089;28;20073;-71
2022/01/03 10:12:38;;;;;;;29.75;4.63;;;10.30;99.90;;;;;;5058403;28;20047;-72
2022/01/03 10:15:06;;;;;;;23.05;4.10;;;10.40;99.90;;;;;;5058196;28;20041;-70
2022/01/03 10:17:37;;;;;;;31.30;4.30;;;10.30;99.90;;;;;;5041029;28;20493;-71
2022/01/03 10:20:04;;;;;;;26.80;4.40;;;10.40;99.90;;;;;;5053835;28;20041;-72
2022/01/03 10:22:33;;;;;;;32.17;4.60;;;10.40;99.90;;;;;;5054668;28;20047;-71
2022/01/03 10:25:09;;;;;;;21.38;3.33;;;10.50;99.90;;;;;;5021319;28;20510;-71
2022/01/03 10:27:59;;;;;;;25.67;4.32;;;10.50;99.90;;;;;;5048919;28;20042;-73
2022/01/03 10:30:40;;;;;;;28.63;3.97;;;10.50;99.90;;;;;;5056684;28;20068;-72
2022/01/03 10:33:08;;;;;;;23.75;3.50;;;10.50;99.90;;;;;;5057868;28;20093;-70
2022/01/03 10:35:45;;;;;;;29.98;4.43;;;10.40;99.90;;;;;;5057412;28;20036;-71
2022/01/03 10:38:29;;;;;;;33.75;4.85;;;10.50;99.90;;;;;;5057216;28;20426;-71
2022/01/03 10:41:09;;;;;;;27.75;3.92;;;10.50;99.90;;;;;;5057197;28;20047;-71
2022/01/03 10:43:34;;;;;;;31.38;4.28;;;10.50;99.90;;;;;;5058033;28;20097;-71
2022/01/03 10:46:14;;;;;;;30.17;4.18;;;10.50;99.90;;;;;;5040735;28;20040;-70
2022/01/03 10:48:40;;;;;;;;;;;10.50;99.90;;;;;;5053958;28;20075;-71
2022/01/03 10:51:05;;;;;;;21.90;3.78;;;10.50;99.90;;;;;;5037229;28;19963;-74
2022/01/03 10:53:43;;;;;;;33.38;3.72;;;10.40;99.90;;;;;;5037599;28;20131;-71
2022/01/03 10:56:31;;;;;;;31.52;5.07;;;10.40;99.90;;;;;;5053665;28;20091;-74
2022/01/03 10:59:21;;;;;;;23.10;4.40;;;10.50;99.90;;;;;;5037032;28;20045;-71
2022/01/03 11:01:50;;;;;;;30.15;4.85;;;10.40;99.90;;;;;;5037194;28;20503;-71
2022/01/03 11:04:53;;;;;;;24.33;4.15;;;10.50;99.90;;;;;;5054411;28;20418;-71
2022/01/03 11:13:19;;;;;;;25.23;4.30;;;10.60;99.90;;;;;;5053097;28;20454;-71
2022/01/03 11:15:54;;;;;;;26.15;4.28;;;10.60;99.90;;;;;;5036710;28;20059;-71
2022/01/03 11:18:21;;;;;;;26.45;4.07;;;10.60;99.90;;;;;;5039764;28;20041;-70
2022/01/03 11:21:16;;;;;;;24.20;3.30;;;10.60;99.90;;;;;;5057014;28;20070;-71
2022/01/03 11:23:46;;;;;;;29.75;4.10;;;10.60;99.90;;;;;;5054140;28;20049;-71
2022/01/03 11:26:18;;;;;;;30.58;3.92;;;10.60;99.90;;;;;;5056553;28;20037;-72
2022/01/03 11:28:44;;;;;;;36.97;4.68;;;10.60;99.90;;;;;;5056327;28;20059;-73
2022/01/03 11:31:12;;;;;;;30.50;5.30;;;10.60;99.90;;;;;;5056870;28;20044;-71
2022/01/03 11:33:38;;;;;;;24.38;4.85;;;10.50;99.90;;;;;;5056925;28;20371;-72
2022/01/03 11:36:05;;;;;;;26.88;3.65;;;10.60;99.90;;;;;;5056558;28;20041;-74
2022/01/03 11:38:33;;;;;;;23.17;3.33;;;10.50;99.90;;;;;;5056313;28;20471;-70
2022/01/03 11:41:09;;;;;;;28.33;4.82;;;10.60;99.90;;;;;;5055671;28;20048;-71
2022/01/03 11:43:36;;;;;;;23.27;3.70;;;10.60;99.90;;;;;;5036401;28;20823;-73
2022/01/03 11:46:02;;;;;;;31.63;5.10;;;10.60;99.90;;;;;;5042072;28;20033;-70
2022/01/03 11:48:29;;;;;;;27.88;4.63;;;10.70;99.90;;;;;;5019729;28;20159;-71
2022/01/03 11:50:57;;;;;;;23.70;4.07;;;10.90;99.90;;;;;;5036471;28;20048;-72
2022/01/03 11:53:23;;;;;;;31.17;5.15;;;11.10;99.90;;;;;;5019718;28;20037;-74
2022/01/03 11:55:58;;;;;;;32.45;4.65;;;11.10;99.90;;;;;;5035773;28;20171;-71
2022/01/03 12:04:08;;;;;;;32.17;4.57;;;11.40;99.90;;;;;;5035731;28;20047;-72
2022/01/03 12:06:34;;;;;;;26.20;4.38;;;11.40;99.90;;;;;;5035691;28;20037;-72
2022/01/03 12:09:02;;;;;;;25.33;4.15;;;11.20;99.90;;;;;;5036192;28;20051;-71
2022/01/03 12:11:29;;;;;;;28.35;4.03;;;11.10;99.90;;;;;;5020822;28;20127;-79
2022/01/03 12:13:55;;;;;;;31.35;4.40;;;11.00;99.90;;;;;;5044183;28;20043;-71
2022/01/03 12:16:52;;;;;;;28.48;4.82;;;11.00;99.90;;;;;;5051776;28;20071;-70
2022/01/03 12:19:24;;;;;;;24.23;3.40;;;11.00;99.90;;;;;;5035757;28;20057;-71
2022/01/03 12:21:53;;;;;;;26.08;4.45;;;10.90;99.90;;;;;;5035916;28;20037;-72
2022/01/03 12:24:27;;;;;;;21.35;3.40;;;11.10;99.90;;;;;;5035633;28;20269;-72
2022/01/03 12:27:15;;;;;;;24.98;4.10;;;11.20;99.90;;;;;;5035344;28;20426;-71
2022/01/03 12:32:28;;;;;;;29.17;4.30;;;11.40;99.90;;;;;;5035387;28;20060;-73
2022/01/03 12:35:21;;;;;;;27.17;4.57;;;11.50;99.90;;;;;;5035427;28;20495;-71
2022/01/03 12:37:53;;;;;;;26.33;3.85;;;11.60;99.90;;;;;;5035327;28;20055;-74
2022/01/03 12:40:27;;;;;;;22.00;4.13;;;11.50;99.90;;;;;;5035465;28;20036;-71
2022/01/03 12:42:53;;;;;;;21.02;4.07;;;11.50;99.90;;;;;;5051937;28;20040;-71
2022/01/03 12:45:33;;;;;;;23.48;3.95;;;11.50;99.90;;;;;;5055217;28;20102;-71
2022/01/03 12:48:15;;;;;;;22.20;3.78;;;11.50;99.90;;;;;;5054664;28;20132;-72
2022/01/03 12:51:05;;;;;;;17.63;3.58;;;11.60;99.90;;;;;;5038870;28;20047;-71
2022/01/03 12:53:31;;;;;;;22.73;3.38;;;11.50;99.90;;;;;;5055773;28;20051;-71
2022/01/03 12:56:19;;;;;;;26.23;4.20;;;11.60;99.90;;;;;;5055306;28;20041;-71
2022/01/03 12:58:55;;;;;;;20.52;3.47;;;11.60;99.90;;;;;;5055174;28;20057;-71
2022/01/03 13:01:27;;;;;;;30.55;4.95;;;11.70;99.90;;;;;;5055514;28;20040;-73
2022/01/03 13:03:54;;;;;;;19.58;3.13;;;11.70;99.90;;;;;;5038772;28;20044;-74
2022/01/03 13:06:34;;;;;;;23.70;3.72;;;11.70;99.90;;;;;;5055229;28;20047;-71
2022/01/03 13:09:02;;;;;;;25.83;4.03;;;11.60;99.90;;;;;;5054537;28;20094;-71
2022/01/03 13:11:31;;;;;;;28.98;4.85;;;11.40;99.90;;;;;;5055351;28;20075;-71
2022/01/03 13:14:00;;;;;;;25.33;5.30;;;11.40;99.90;;;;;;5053546;28;20474;-71
2022/01/03 13:16:30;;;;;;;24.67;4.35;;;11.30;99.90;;;;;;5038203;28;20040;-71
2022/01/03 13:18:57;;;;;;;;;;;11.20;99.90;;;;;;5058681;28;20131;-71